PWSweather.com
Personal Weather Stations
Station Observations
MEREWETHER
MerewetherAU

MerewetherAU

Lat: -32.945, Lon: 151.756

Elevation: 180

Station Type: Davis Vantage Pro

Latest ConditionsUpdated 6:42:46 AM GMT+10:10 Thursday, Apr 25, 2019
Currently Today's Max Today's Min Today's Average
Temperature 58.9°F14.9°C 64.5°F18.1°C 58.6°F14.8°C 61.9°F16.6°C
Dew Point 56.9°F13.8°C 60.1°F15.6°C 56.3°F13.5°C 58.6°F14.8°C
Winds Calm Calm 5.0 mph -8.0 kmh - - 1.3 mph 2.1 kmh
Wind Gusts -- 7.0 mph11.3 kmh - -
Humidity 93% 93% 84% 89%
Pressure 30.12 in1020.0 mb 30.15 in1021.0 mb 30.09 in1019.0 mb -
Hour Temp Dew Point Humidity Winds Wind Gusts Pressure Precip Precip Rate Daily Precip Total
06:42 AM 58.9°F14.9°C 56.9°F13.8°C 93% Calm Calm -- 30.12 in1020.0 mb 0.00 in0.0 mm 0.00 in0.0 mm 0.00 in0.0 mm
06:32 AM 58.6°F14.8°C 56.3°F13.5°C 92% Calm Calm 5.0 mph8.0 kmh 30.12 in1020.0 mb 0.00 in0.0 mm 0.00 in0.0 mm 0.00 in0.0 mm
06:22 AM 58.6°F14.8°C 56.3°F13.5°C 92% 1.0 mph SE1.6 kmh SE 6.0 mph9.7 kmh 30.12 in1020.0 mb 0.00 in0.0 mm 0.00 in0.0 mm 0.00 in0.0 mm
06:12 AM 58.6°F14.8°C 56.3°F13.5°C 92% 2.0 mph SE3.2 kmh SE 7.0 mph11.3 kmh 30.11 in1019.6 mb 0.00 in0.0 mm 0.00 in0.0 mm 0.00 in0.0 mm
06:02 AM 58.8°F14.9°C 56.5°F13.6°C 92% 4.0 mph SE6.4 kmh SE 7.0 mph11.3 kmh 30.11 in1019.6 mb 0.00 in0.0 mm 0.00 in0.0 mm 0.00 in0.0 mm
05:52 AM 58.9°F14.9°C 56.6°F13.7°C 92% 2.0 mph SE3.2 kmh SE 7.0 mph11.3 kmh 30.11 in1019.6 mb 0.00 in0.0 mm 0.00 in0.0 mm 0.00 in0.0 mm
05:42 AM 59.1°F15.1°C 56.8°F13.8°C 92% 1.0 mph SE1.6 kmh SE 7.0 mph11.3 kmh 30.11 in1019.6 mb 0.00 in0.0 mm 0.00 in0.0 mm 0.00 in0.0 mm
05:32 AM 59.4°F15.2°C 57.1°F13.9°C 92% 1.0 mph SE1.6 kmh SE 6.0 mph9.7 kmh 30.11 in1019.6 mb 0.00 in0.0 mm 0.00 in0.0 mm 0.00 in0.0 mm
05:22 AM 59.5°F15.3°C 57.2°F14.0°C 92% 5.0 mph SE8.0 kmh SE 6.0 mph9.7 kmh 30.11 in1019.6 mb 0.00 in0.0 mm 0.00 in0.0 mm 0.00 in0.0 mm
05:12 AM 59.7°F15.4°C 57.1°F13.9°C 91% 2.0 mph SE3.2 kmh SE 6.0 mph9.7 kmh 30.11 in1019.6 mb 0.00 in0.0 mm 0.00 in0.0 mm 0.00 in0.0 mm
05:02 AM 59.9°F15.5°C 57.3°F14.1°C 91% 4.0 mph SE6.4 kmh SE 6.0 mph9.7 kmh 30.10 in1019.3 mb 0.00 in0.0 mm 0.00 in0.0 mm 0.00 in0.0 mm
04:52 AM 60.2°F15.7°C 57.6°F14.2°C 91% 1.0 mph SE1.6 kmh SE 6.0 mph9.7 kmh 30.10 in1019.3 mb 0.00 in0.0 mm 0.00 in0.0 mm 0.00 in0.0 mm
04:42 AM 60.5°F15.8°C 57.9°F14.4°C 91% 2.0 mph SE3.2 kmh SE 6.0 mph9.7 kmh 30.10 in1019.3 mb 0.00 in0.0 mm 0.00 in0.0 mm 0.00 in0.0 mm
04:32 AM 60.7°F15.9°C 58.1°F14.5°C 91% 3.0 mph SE4.8 kmh SE 6.0 mph9.7 kmh 30.10 in1019.3 mb 0.00 in0.0 mm 0.00 in0.0 mm 0.00 in0.0 mm
04:22 AM 61.0°F16.1°C 58.0°F14.4°C 90% 2.0 mph SE3.2 kmh SE 4.0 mph6.4 kmh 30.10 in1019.3 mb 0.00 in0.0 mm 0.00 in0.0 mm 0.00 in0.0 mm
04:12 AM 61.1°F16.2°C 58.1°F14.5°C 90% 2.0 mph SE3.2 kmh SE 5.0 mph8.0 kmh 30.10 in1019.3 mb 0.00 in0.0 mm 0.00 in0.0 mm 0.00 in0.0 mm
04:02 AM 61.3°F16.3°C 58.3°F14.6°C 90% 1.0 mph SE1.6 kmh SE 6.0 mph9.7 kmh 30.10 in1019.3 mb 0.00 in0.0 mm 0.00 in0.0 mm 0.00 in0.0 mm
03:52 AM 61.7°F16.5°C 58.4°F14.7°C 89% 3.0 mph SE4.8 kmh SE 6.0 mph9.7 kmh 30.10 in1019.3 mb 0.00 in0.0 mm 0.00 in0.0 mm 0.00 in0.0 mm
03:42 AM 62.1°F16.7°C 58.8°F14.9°C 89% 2.0 mph SE3.2 kmh SE 5.0 mph8.0 kmh 30.09 in1019.0 mb 0.00 in0.0 mm 0.00 in0.0 mm 0.00 in0.0 mm
03:32 AM 62.4°F16.9°C 59.1°F15.1°C 89% 2.0 mph SE3.2 kmh SE 5.0 mph8.0 kmh 30.09 in1019.0 mb 0.00 in0.0 mm 0.00 in0.0 mm 0.00 in0.0 mm
03:22 AM 62.8°F17.1°C 59.2°F15.1°C 88% 1.0 mph SE1.6 kmh SE 5.0 mph8.0 kmh 30.09 in1019.0 mb 0.00 in0.0 mm 0.00 in0.0 mm 0.00 in0.0 mm
03:12 AM 63.0°F17.2°C 59.7°F15.4°C 89% 2.0 mph SE3.2 kmh SE 5.0 mph8.0 kmh 30.09 in1019.0 mb 0.00 in0.0 mm 0.00 in0.0 mm 0.00 in0.0 mm
03:02 AM 63.2°F17.3°C 59.9°F15.5°C 89% 2.0 mph SE3.2 kmh SE 5.0 mph8.0 kmh 30.09 in1019.0 mb 0.00 in0.0 mm 0.00 in0.0 mm 0.00 in0.0 mm
02:52 AM 63.3°F17.4°C 60.0°F15.6°C 89% 2.0 mph SE3.2 kmh SE 4.0 mph6.4 kmh 30.10 in1019.3 mb 0.00 in0.0 mm 0.00 in0.0 mm 0.00 in0.0 mm
02:42 AM 63.4°F17.4°C 59.8°F15.4°C 88% 1.0 mph SE1.6 kmh SE 4.0 mph6.4 kmh 30.10 in1019.3 mb 0.00 in0.0 mm 0.00 in0.0 mm 0.00 in0.0 mm
02:32 AM 63.4°F17.4°C 59.8°F15.4°C 88% 1.0 mph SE1.6 kmh SE 4.0 mph6.4 kmh 30.10 in1019.3 mb 0.00 in0.0 mm 0.00 in0.0 mm 0.00 in0.0 mm
02:22 AM 63.3°F17.4°C 59.7°F15.4°C 88% 2.0 mph SE3.2 kmh SE 4.0 mph6.4 kmh 30.11 in1019.6 mb 0.00 in0.0 mm 0.00 in0.0 mm 0.00 in0.0 mm
02:12 AM 63.3°F17.4°C 59.4°F15.2°C 87% Calm Calm -- 30.11 in1019.6 mb 0.00 in0.0 mm 0.00 in0.0 mm 0.00 in0.0 mm
02:02 AM 63.5°F17.5°C 59.6°F15.3°C 87% 1.0 mph SE1.6 kmh SE 3.0 mph4.8 kmh 30.11 in1019.6 mb 0.00 in0.0 mm 0.00 in0.0 mm 0.00 in0.0 mm
01:52 AM 63.6°F17.6°C 59.7°F15.4°C 87% Calm Calm -- 30.11 in1019.6 mb 0.00 in0.0 mm 0.00 in0.0 mm 0.00 in0.0 mm
01:42 AM 63.8°F17.7°C 59.5°F15.3°C 86% Calm Calm 3.0 mph4.8 kmh 30.11 in1019.6 mb 0.00 in0.0 mm 0.00 in0.0 mm 0.00 in0.0 mm
01:32 AM 64.1°F17.8°C 60.1°F15.6°C 87% 2.0 mph SE3.2 kmh SE 3.0 mph4.8 kmh 30.12 in1020.0 mb 0.00 in0.0 mm 0.00 in0.0 mm 0.00 in0.0 mm
01:22 AM 64.1°F17.8°C 60.1°F15.6°C 87% Calm Calm 3.0 mph4.8 kmh 30.12 in1020.0 mb 0.00 in0.0 mm 0.00 in0.0 mm 0.00 in0.0 mm
01:12 AM 64.0°F17.8°C 60.0°F15.6°C 87% Calm Calm 2.0 mph3.2 kmh 30.12 in1020.0 mb 0.00 in0.0 mm 0.00 in0.0 mm 0.00 in0.0 mm
01:02 AM 64.0°F17.8°C 59.7°F15.4°C 86% Calm Calm -- 30.12 in1020.0 mb 0.00 in0.0 mm 0.00 in0.0 mm 0.00 in0.0 mm
12:52 AM 63.9°F17.7°C 59.6°F15.3°C 86% Calm Calm -- 30.12 in1020.0 mb 0.00 in0.0 mm 0.00 in0.0 mm 0.00 in0.0 mm
12:42 AM 63.9°F17.7°C 59.6°F15.3°C 86% Calm Calm -- 30.13 in1020.3 mb 0.00 in0.0 mm 0.00 in0.0 mm 0.00 in0.0 mm
12:32 AM 63.9°F17.7°C 59.3°F15.2°C 85% Calm Calm -- 30.13 in1020.3 mb 0.00 in0.0 mm 0.00 in0.0 mm 0.00 in0.0 mm
12:22 AM 64.1°F17.8°C 59.2°F15.1°C 84% Calm Calm -- 30.14 in1020.7 mb 0.00 in0.0 mm 0.00 in0.0 mm 0.00 in0.0 mm
12:12 AM 64.4°F18.0°C 59.5°F15.3°C 84% Calm Calm -- 30.14 in1020.7 mb 0.00 in0.0 mm 0.00 in0.0 mm 0.00 in0.0 mm
12:02 AM 64.5°F18.1°C 59.6°F15.3°C 84% Calm Calm -- 30.15 in1021.0 mb 0.00 in0.0 mm 0.00 in0.0 mm 0.00 in0.0 mm